Time;durP1;ratioP1;P1;durP2;ratioP2;P2;SDS_P1;SDS_P2;PMS_P1;PMS_P2;Temp;Humidity;BMP_temperature;BMP_pressure;BME280_temperature;BME280_humidity;BME280_pressure;Samples;Min_cycle;Max_cycle;Signal;HPM_P1;HPM_P2
2021/03/09 00:02:00;;;;;;;11.68;3.00;;;;;;;;;;4366803;32;20130;-80
2021/03/09 00:04:28;;;;;;;8.90;2.28;;;;;;;;;;4362903;32;20077;-78
2021/03/09 00:06:56;;;;;;;12.07;5.40;;;;;;;;;;4365791;32;20101;-78
2021/03/09 00:09:24;;;;;;;8.63;2.05;;;;;;;;;;4367362;32;20099;-77
2021/03/09 00:11:53;;;;;;;11.90;2.55;;;;;;;;;;4366034;32;20090;-77
2021/03/09 00:14:21;;;;;;;13.77;12.35;;;;;;;;;;4354058;32;20055;-78
2021/03/09 00:16:49;;;;;;;12.32;5.45;;;;;;;;;;4354416;32;20105;-79
2021/03/09 00:19:17;;;;;;;9.98;5.62;;;;;;;;;;4363074;32;20126;-77
2021/03/09 00:21:45;;;;;;;5.37;2.08;;;;;;;;;;4362267;32;20070;-77
2021/03/09 00:24:13;;;;;;;22.27;18.25;;;;;;;;;;4365190;32;20120;-77
2021/03/09 00:26:41;;;;;;;8.38;5.35;;;;;;;;;;4353247;32;20089;-77
2021/03/09 00:29:09;;;;;;;6.12;1.37;;;;;;;;;;4363956;32;20860;-77
2021/03/09 00:31:37;;;;;;;20.98;14.68;;;;;;;;;;4359580;32;20123;-77
2021/03/09 00:34:05;;;;;;;8.25;1.70;;;;;;;;;;4361830;32;20528;-77
2021/03/09 00:36:33;;;;;;;7.22;1.45;;;;;;;;;;4364334;32;20540;-78
2021/03/09 00:39:02;;;;;;;7.18;1.75;;;;;;;;;;4364241;32;20870;-77
2021/03/09 00:41:30;;;;;;;8.70;1.80;;;;;;;;;;4359686;32;20116;-76
2021/03/09 00:43:58;;;;;;;6.68;1.67;;;;;;;;;;4364087;32;20077;-78
2021/03/09 00:46:26;;;;;;;33.70;29.25;;;;;;;;;;4365121;32;20300;-77
2021/03/09 00:48:55;;;;;;;32.38;27.60;;;;;;;;;;4364516;32;20075;-76
2021/03/09 00:51:24;;;;;;;12.35;2.20;;;;;;;;;;4364916;32;20535;-78
2021/03/09 00:53:51;;;;;;;11.82;2.30;;;;;;;;;;4366091;32;21128;-77
2021/03/09 00:56:20;;;;;;;13.75;2.40;;;;;;;;;;4363400;32;20450;-78
2021/03/09 00:58:47;;;;;;;10.57;1.87;;;;;;;;;;4360608;32;20095;-77
2021/03/09 01:01:15;;;;;;;8.85;1.70;;;;;;;;;;4366549;32;20073;-80
2021/03/09 01:03:43;;;;;;;9.25;1.70;;;;;;;;;;4367645;32;20081;-77
2021/03/09 01:06:12;;;;;;;9.50;1.92;;;;;;;;;;4356047;32;20066;-78
2021/03/09 01:08:40;;;;;;;14.93;2.20;;;;;;;;;;4358067;32;20181;-76
2021/03/09 01:11:08;;;;;;;13.05;2.20;;;;;;;;;;4366586;32;20064;-77
2021/03/09 01:13:36;;;;;;;7.90;2.03;;;;;;;;;;4365702;32;20446;-77
2021/03/09 01:16:04;;;;;;;9.55;2.22;;;;;;;;;;4357908;32;20059;-79
2021/03/09 01:18:32;;;;;;;12.98;2.00;;;;;;;;;;4358897;32;20133;-77
2021/03/09 01:21:00;;;;;;;8.88;1.80;;;;;;;;;;4366230;32;20110;-77
2021/03/09 01:23:28;;;;;;;8.77;2.30;;;;;;;;;;4363128;32;20043;-76
2021/03/09 01:25:56;;;;;;;7.10;1.52;;;;;;;;;;4359267;32;20051;-77
2021/03/09 01:28:24;;;;;;;8.55;1.50;;;;;;;;;;4360989;32;20047;-77
2021/03/09 01:30:52;;;;;;;7.65;1.62;;;;;;;;;;4364900;32;20055;-76
2021/03/09 01:33:21;;;;;;;11.88;2.35;;;;;;;;;;4362447;32;20082;-76
2021/03/09 01:35:49;;;;;;;7.20;1.33;;;;;;;;;;4357713;32;20117;-77
2021/03/09 01:38:17;;;;;;;9.82;1.75;;;;;;;;;;4360570;32;20083;-78
2021/03/09 01:40:45;;;;;;;5.20;1.48;;;;;;;;;;4366356;32;20563;-78
2021/03/09 01:43:13;;;;;;;6.95;1.60;;;;;;;;;;4367576;32;20455;-77
2021/03/09 01:45:41;;;;;;;6.78;1.73;;;;;;;;;;4361744;32;20117;-81
2021/03/09 01:48:10;;;;;;;3.72;1.17;;;;;;;;;;4363459;32;20063;-82
2021/03/09 01:50:42;;;;;;;6.20;1.30;;;;;;;;;;4364938;32;20057;-77
2021/03/09 01:53:10;;;;;;;12.37;1.85;;;;;;;;;;4359498;32;20125;-77
2021/03/09 01:55:38;;;;;;;7.68;1.80;;;;;;;;;;4357364;32;20118;-77
2021/03/09 01:58:07;;;;;;;9.23;1.30;;;;;;;;;;4362584;32;20094;-81
2021/03/09 02:00:35;;;;;;;18.98;5.07;;;;;;;;;;4351624;32;20174;-79
2021/03/09 02:03:04;;;;;;;31.42;27.98;;;;;;;;;;4356855;32;20095;-81
2021/03/09 02:05:35;;;;;;;6.53;1.92;;;;;;;;;;4355333;32;20047;-83
2021/03/09 02:08:03;;;;;;;17.17;15.45;;;;;;;;;;4363230;32;20072;-82
2021/03/09 02:10:32;;;;;;;11.90;7.47;;;;;;;;;;4366987;32;20055;-81
2021/03/09 02:13:09;;;;;;;13.13;11.77;;;;;;;;;;4363558;32;20743;-81
2021/03/09 02:15:40;;;;;;;14.02;10.35;;;;;;;;;;4362615;32;20102;-77
2021/03/09 02:18:14;;;;;;;20.23;18.40;;;;;;;;;;4365528;32;20122;-80
2021/03/09 02:21:04;;;;;;;6.13;5.60;;;;;;;;;;4351829;32;20060;-78
2021/03/09 02:23:51;;;;;;;5.43;1.62;;;;;;;;;;4363028;32;20063;-77
2021/03/09 02:26:45;;;;;;;6.25;1.33;;;;;;;;;;4362978;32;20406;-79
2021/03/09 02:29:35;;;;;;;9.25;1.70;;;;;;;;;;4336433;32;20059;-77
2021/03/09 02:32:05;;;;;;;7.62;1.80;;;;;;;;;;4361931;32;20122;-79
2021/03/09 02:34:40;;;;;;;9.15;2.00;;;;;;;;;;4359641;32;20063;-79
2021/03/09 02:37:10;;;;;;;8.95;1.95;;;;;;;;;;4341886;32;20056;-79
2021/03/09 02:39:42;;;;;;;6.72;1.75;;;;;;;;;;4353202;32;20137;-78
2021/03/09 02:42:12;;;;;;;10.15;1.92;;;;;;;;;;4349468;32;20083;-78
2021/03/09 02:44:40;;;;;;;10.73;1.50;;;;;;;;;;4361304;32;20162;-76
2021/03/09 02:47:09;;;;;;;9.30;1.70;;;;;;;;;;4364989;32;20165;-79
2021/03/09 02:49:41;;;;;;;7.35;1.50;;;;;;;;;;4364180;32;20137;-78
2021/03/09 02:52:14;;;;;;;8.88;1.52;;;;;;;;;;4359054;32;20052;-77
2021/03/09 02:54:44;;;;;;;7.65;1.60;;;;;;;;;;4360109;32;20071;-78
2021/03/09 02:57:16;;;;;;;9.32;1.73;;;;;;;;;;4363869;32;20630;-77
2021/03/09 02:59:44;;;;;;;10.40;1.40;;;;;;;;;;4353137;32;20059;-77
2021/03/09 03:02:13;;;;;;;7.20;1.80;;;;;;;;;;4358881;32;20130;-78
2021/03/09 03:04:42;;;;;;;6.82;1.75;;;;;;;;;;4364084;32;20071;-77
2021/03/09 03:07:12;;;;;;;6.87;1.58;;;;;;;;;;4367462;32;20051;-78
2021/03/09 03:09:40;;;;;;;11.73;2.00;;;;;;;;;;4364343;32;20485;-78
2021/03/09 03:12:12;;;;;;;9.88;1.70;;;;;;;;;;4392483;27;20039;-96
2021/03/09 03:14:46;;;;;;;14.10;2.20;;;;;;;;;;4348630;32;20082;-95
2021/03/09 03:17:15;;;;;;;7.18;1.62;;;;;;;;;;4348424;32;20061;-95
2021/03/09 03:19:59;;;;;;;7.07;1.80;;;;;;;;;;4349300;32;20043;-94
2021/03/09 03:22:33;;;;;;;8.73;1.98;;;;;;;;;;4356143;32;20113;-95
2021/03/09 03:25:27;;;;;;;16.35;14.55;;;;;;;;;;4350216;32;20145;-95
2021/03/09 03:28:00;;;;;;;22.80;20.37;;;;;;;;;;4354041;32;20058;-95
2021/03/09 03:30:38;;;;;;;22.35;19.08;;;;;;;;;;4363829;32;20084;-94
2021/03/09 03:33:08;;;;;;;22.17;18.25;;;;;;;;;;4364022;32;20123;-95
2021/03/09 03:35:42;;;;;;;22.10;19.77;;;;;;;;;;4366635;32;20055;-95
2021/03/09 03:38:21;;;;;;;29.50;19.70;;;;;;;;;;4368240;32;20055;-95
2021/03/09 03:41:10;;;;;;;22.65;19.70;;;;;;;;;;4377159;32;20073;-93
2021/03/09 03:44:25;;;;;;;27.73;23.95;;;;;;;;;;4364797;32;20078;-95
2021/03/09 03:46:56;;;;;;;25.45;22.83;;;;;;;;;;4376199;32;20085;-93
2021/03/09 03:49:29;;;;;;;24.70;22.00;;;;;;;;;;4360234;32;20050;-94
2021/03/09 03:52:09;;;;;;;28.23;24.15;;;;;;;;;;4361775;32;20102;-95
2021/03/09 03:54:38;;;;;;;5.97;1.33;;;;;;;;;;4364219;32;20403;-96
2021/03/09 03:57:18;;;;;;;8.07;1.30;;;;;;;;;;4358946;32;20052;-95
2021/03/09 03:59:51;;;;;;;8.43;1.70;;;;;;;;;;4360132;32;20043;-94
2021/03/09 04:02:24;;;;;;;7.30;1.25;;;;;;;;;;4377507;32;20108;-95
2021/03/09 04:05:02;;;;;;;10.35;1.75;;;;;;;;;;4355879;32;20079;-96
2021/03/09 04:07:42;;;;;;;5.80;1.02;;;;;;;;;;4367096;32;20091;-95
2021/03/09 04:10:16;;;;;;;7.30;1.50;;;;;;;;;;4360803;32;20054;-94
2021/03/09 04:12:54;;;;;;;3.65;1.17;;;;;;;;;;4358930;32;20047;-94
2021/03/09 04:15:33;;;;;;;11.10;8.90;;;;;;;;;;4366537;32;20110;-96
2021/03/09 04:18:16;;;;;;;6.10;1.45;;;;;;;;;;4365975;32;20069;-95
2021/03/09 04:20:57;;;;;;;7.82;2.15;;;;;;;;;;4365537;32;20600;-95
2021/03/09 04:23:26;;;;;;;11.80;2.10;;;;;;;;;;4378144;32;20054;-96
2021/03/09 04:26:02;;;;;;;8.68;1.58;;;;;;;;;;4366798;32;20051;-95
2021/03/09 04:28:45;;;;;;;7.50;1.62;;;;;;;;;;4364695;32;20039;-95
2021/03/09 04:31:28;;;;;;;7.72;1.87;;;;;;;;;;4352129;32;20066;-96
2021/03/09 04:34:00;;;;;;;7.87;1.20;;;;;;;;;;4377529;32;20042;-95
2021/03/09 04:36:36;;;;;;;5.55;1.20;;;;;;;;;;4364758;32;20051;-95
2021/03/09 04:39:12;;;;;;;6.30;1.15;;;;;;;;;;4373528;32;22443;-95
2021/03/09 04:41:47;;;;;;;9.20;1.87;;;;;;;;;;4361464;32;20079;-95
2021/03/09 04:44:18;;;;;;;4.28;1.12;;;;;;;;;;4364307;32;20109;-95
2021/03/09 04:46:49;;;;;;;9.55;1.70;;;;;;;;;;4365467;32;20031;-96
2021/03/09 04:49:24;;;;;;;;;;;;;;;;;;4361744;32;20071;-95
2021/03/09 04:51:57;;;;;;;6.80;1.30;;;;;;;;;;4363699;32;19981;-94
2021/03/09 04:54:26;;;;;;;3.55;1.05;;;;;;;;;;4375041;32;20086;-95
2021/03/09 04:57:00;;;;;;;3.78;0.90;;;;;;;;;;4366326;32;20088;-94
2021/03/09 04:59:36;;;;;;;4.97;1.00;;;;;;;;;;4373947;32;21624;-96
2021/03/09 05:02:12;;;;;;;13.75;1.67;;;;;;;;;;4355476;32;20109;-94
2021/03/09 05:04:43;;;;;;;6.72;1.45;;;;;;;;;;4359536;32;20051;-95
2021/03/09 05:07:11;;;;;;;10.63;1.73;;;;;;;;;;4356446;32;20054;-96
2021/03/09 05:09:40;;;;;;;6.78;1.70;;;;;;;;;;4362155;32;20048;-95
2021/03/09 05:12:16;;;;;;;6.28;1.40;;;;;;;;;;4361212;32;20090;-96
2021/03/09 05:14:49;;;;;;;7.50;1.58;;;;;;;;;;4359598;32;20095;-96
2021/03/09 05:17:22;;;;;;;11.98;5.12;;;;;;;;;;4362530;32;20047;-94
2021/03/09 05:19:54;;;;;;;7.97;4.72;;;;;;;;;;4356250;32;20090;-95
2021/03/09 05:22:33;;;;;;;7.40;1.43;;;;;;;;;;4372717;32;20103;-95
2021/03/09 05:25:15;;;;;;;8.20;1.70;;;;;;;;;;4358355;32;20101;-96
2021/03/09 05:27:44;;;;;;;6.37;1.33;;;;;;;;;;4360225;32;20448;-96
2021/03/09 05:30:17;;;;;;;7.10;1.48;;;;;;;;;;4362351;32;20129;-96
2021/03/09 05:32:56;;;;;;;12.20;2.00;;;;;;;;;;4385788;32;20090;-95
2021/03/09 05:35:28;;;;;;;9.32;1.65;;;;;;;;;;4364451;32;20469;-95
2021/03/09 05:38:03;;;;;;;7.80;1.37;;;;;;;;;;4365481;32;20051;-96
2021/03/09 05:40:46;;;;;;;11.18;1.48;;;;;;;;;;4364314;32;21116;-95
2021/03/09 05:43:27;;;;;;;7.87;1.70;;;;;;;;;;4365798;32;20802;-94
2021/03/09 05:45:57;;;;;;;9.88;1.75;;;;;;;;;;4364888;32;20345;-95
2021/03/09 05:48:47;;;;;;;9.05;2.15;;;;;;;;;;4369709;32;20122;-95
2021/03/09 05:51:25;;;;;;;13.27;7.93;;;;;;;;;;4363742;32;20056;-95
2021/03/09 05:53:58;;;;;;;11.43;9.85;;;;;;;;;;4362733;32;20047;-94
2021/03/09 05:56:38;;;;;;;8.35;7.53;;;;;;;;;;4362973;32;20059;-96
2021/03/09 05:59:14;;;;;;;9.68;4.60;;;;;;;;;;4356993;32;20118;-96
2021/03/09 06:01:51;;;;;;;14.60;6.72;;;;;;;;;;4364330;32;20060;-95
2021/03/09 06:04:25;;;;;;;7.50;3.20;;;;;;;;;;4363765;32;20077;-96
2021/03/09 06:06:53;;;;;;;7.07;1.98;;;;;;;;;;4364866;32;20155;-95
2021/03/09 06:09:58;;;;;;;12.95;1.80;;;;;;;;;;4360499;32;20052;-94
2021/03/09 06:12:27;;;;;;;13.38;1.98;;;;;;;;;;4322487;33;20101;-95
2021/03/09 06:15:01;;;;;;;9.35;1.90;;;;;;;;;;4359442;32;20052;-95
2021/03/09 06:17:42;;;;;;;8.63;1.87;;;;;;;;;;4343405;33;20055;-95
2021/03/09 06:20:21;;;;;;;5.15;1.30;;;;;;;;;;4349654;33;20526;-95
2021/03/09 06:22:53;;;;;;;10.38;2.15;;;;;;;;;;4365788;32;20078;-95
2021/03/09 06:25:24;;;;;;;11.95;2.00;;;;;;;;;;4353934;32;20055;-94
2021/03/09 06:28:00;;;;;;;6.62;1.50;;;;;;;;;;4352231;32;20083;-95
2021/03/09 06:30:34;;;;;;;5.43;1.50;;;;;;;;;;4356556;32;20083;-96
2021/03/09 06:33:06;;;;;;;9.00;2.10;;;;;;;;;;4346490;32;20052;-94
2021/03/09 06:35:45;;;;;;;10.43;1.85;;;;;;;;;;4348773;33;20103;-96
2021/03/09 06:38:33;;;;;;;11.48;2.10;;;;;;;;;;4341470;33;20114;-96
2021/03/09 06:41:04;;;;;;;7.35;1.60;;;;;;;;;;4347614;33;20064;-94
2021/03/09 06:43:33;;;;;;;7.50;1.83;;;;;;;;;;4358134;33;20070;-95
2021/03/09 06:46:17;;;;;;;6.22;1.50;;;;;;;;;;4347483;33;20080;-96
2021/03/09 06:48:52;;;;;;;7.78;1.92;;;;;;;;;;4357829;33;20048;-96
2021/03/09 06:51:38;;;;;;;9.93;2.60;;;;;;;;;;4346364;33;20074;-94
2021/03/09 06:54:11;;;;;;;13.62;2.45;;;;;;;;;;4355120;32;20051;-94
2021/03/09 06:56:43;;;;;;;10.52;2.35;;;;;;;;;;4368849;32;20137;-95
2021/03/09 06:59:18;;;;;;;14.77;2.95;;;;;;;;;;4338052;33;20081;-96
2021/03/09 07:02:16;;;;;;;5.55;1.75;;;;;;;;;;4344157;32;20096;-94
2021/03/09 07:04:51;;;;;;;13.40;10.82;;;;;;;;;;4294889;33;20103;-95
2021/03/09 07:07:30;;;;;;;19.48;12.55;;;;;;;;;;4345995;33;20082;-94
2021/03/09 07:10:11;;;;;;;31.12;21.08;;;;;;;;;;4345938;33;20075;-96
2021/03/09 07:12:47;;;;;;;29.70;26.55;;;;;;;;;;4364892;32;20068;-96
2021/03/09 07:15:21;;;;;;;38.58;34.05;;;;;;;;;;4362925;32;20047;-96
2021/03/09 07:17:55;;;;;;;5.62;1.42;;;;;;;;;;4363903;32;20080;-96
2021/03/09 07:20:23;;;;;;;11.50;2.10;;;;;;;;;;4358083;32;20073;-95
2021/03/09 07:23:02;;;;;;;9.07;2.37;;;;;;;;;;4358997;32;20066;-96
2021/03/09 07:25:34;;;;;;;34.88;31.85;;;;;;;;;;4358510;32;20140;-95
2021/03/09 07:28:19;;;;;;;18.52;14.23;;;;;;;;;;4364315;32;20121;-96
2021/03/09 07:30:58;;;;;;;14.25;7.72;;;;;;;;;;4351601;32;20047;-96
2021/03/09 07:33:33;;;;;;;7.95;5.82;;;;;;;;;;4370161;32;20095;-95
2021/03/09 07:36:05;;;;;;;8.10;1.30;;;;;;;;;;4365432;32;20472;-95
2021/03/09 07:38:39;;;;;;;10.13;2.03;;;;;;;;;;4357060;32;20109;-96
2021/03/09 07:41:12;;;;;;;8.63;1.95;;;;;;;;;;4366495;32;20062;-95
2021/03/09 07:44:02;;;;;;;5.07;2.95;;;;;;;;;;4366301;32;20081;-95
2021/03/09 07:46:30;;;;;;;12.30;6.62;;;;;;;;;;4350782;32;20101;-95
2021/03/09 07:49:04;;;;;;;10.68;9.20;;;;;;;;;;4363097;32;20050;-96
2021/03/09 07:52:02;;;;;;;19.95;18.10;;;;;;;;;;4361684;32;20043;-96
2021/03/09 07:54:30;;;;;;;19.27;17.87;;;;;;;;;;4361037;32;20061;-95
2021/03/09 07:57:16;;;;;;;14.50;10.90;;;;;;;;;;4357820;32;20112;-95
2021/03/09 07:59:56;;;;;;;13.98;6.87;;;;;;;;;;4366472;32;20055;-95
2021/03/09 08:02:57;;;;;;;8.75;6.45;;;;;;;;;;4364190;32;20082;-94
2021/03/09 08:05:28;;;;;;;11.48;6.60;;;;;;;;;;4360692;32;20257;-94
2021/03/09 08:08:06;;;;;;;13.48;4.85;;;;;;;;;;4360401;32;20089;-95
2021/03/09 08:10:34;;;;;;;9.95;4.85;;;;;;;;;;4350732;32;20074;-96
2021/03/09 08:13:11;;;;;;;11.73;2.47;;;;;;;;;;4360143;32;20101;-95
2021/03/09 08:15:44;;;;;;;6.82;1.80;;;;;;;;;;4361592;32;20166;-94
2021/03/09 08:18:19;;;;;;;9.87;1.70;;;;;;;;;;4358176;32;20059;-94
2021/03/09 08:20:49;;;;;;;;;;;;;;;;;;4364474;32;20096;-95
2021/03/09 08:23:52;;;;;;;6.07;3.47;;;;;;;;;;4349381;32;19943;-96
2021/03/09 08:26:25;;;;;;;10.82;2.20;;;;;;;;;;4358637;32;20051;-95
2021/03/09 08:28:54;;;;;;;10.38;2.28;;;;;;;;;;4363963;32;20070;-96
2021/03/09 08:31:29;;;;;;;8.43;4.00;;;;;;;;;;4363797;32;20047;-95
2021/03/09 08:35:04;;;;;;;10.38;6.32;;;;;;;;;;4297287;33;20080;-96
2021/03/09 08:38:23;;;;;;;6.43;1.50;;;;;;;;;;4257626;33;20058;-96
2021/03/09 08:41:03;;;;;;;10.88;5.82;;;;;;;;;;4273832;33;20496;-96
2021/03/09 08:43:35;;;;;;;7.57;2.22;;;;;;;;;;4327098;33;20149;-96
2021/03/09 08:46:09;;;;;;;10.73;4.10;;;;;;;;;;4332884;32;20119;-96
2021/03/09 08:48:51;;;;;;;8.80;2.20;;;;;;;;;;4335384;33;20053;-96
2021/03/09 08:55:08;;;;;;;6.40;1.40;;;;;;;;;;4286976;33;20077;-96
2021/03/09 08:57:58;;;;;;;5.30;1.65;;;;;;;;;;4281512;33;20055;-96
2021/03/09 09:00:48;;;;;;;12.13;2.05;;;;;;;;;;4321743;33;20067;-93
2021/03/09 09:03:37;;;;;;;7.22;2.03;;;;;;;;;;4327136;33;20068;-96
2021/03/09 09:06:31;;;;;;;7.97;1.95;;;;;;;;;;4335373;33;20036;-96
2021/03/09 09:09:30;;;;;;;7.35;2.30;;;;;;;;;;4360011;32;20076;-96
2021/03/09 09:12:37;;;;;;;4.55;1.77;;;;;;;;;;4354449;27;20130;-80
2021/03/09 09:15:07;;;;;;;7.45;1.55;;;;;;;;;;4349314;32;20059;-80
2021/03/09 09:17:36;;;;;;;7.90;1.77;;;;;;;;;;4349075;32;20077;-81
2021/03/09 09:20:15;;;;;;;2.95;1.85;;;;;;;;;;4353107;32;20125;-80
2021/03/09 09:22:43;;;;;;;5.70;1.85;;;;;;;;;;4352134;33;20059;-79
2021/03/09 09:25:13;;;;;;;10.85;1.87;;;;;;;;;;4348567;32;20452;-80
2021/03/09 09:27:42;;;;;;;10.77;1.98;;;;;;;;;;4352204;32;20380;-82
2021/03/09 09:30:15;;;;;;;8.77;3.00;;;;;;;;;;4353743;33;20476;-77
2021/03/09 09:32:44;;;;;;;9.50;2.03;;;;;;;;;;4351598;33;20183;-79
2021/03/09 09:35:13;;;;;;;9.43;2.50;;;;;;;;;;4354365;32;20067;-79
2021/03/09 09:37:51;;;;;;;12.95;2.53;;;;;;;;;;4351252;32;20043;-77
2021/03/09 09:40:21;;;;;;;11.77;2.55;;;;;;;;;;4352134;33;20085;-81
2021/03/09 09:42:56;;;;;;;13.98;2.80;;;;;;;;;;4351129;33;20070;-79
2021/03/09 09:45:25;;;;;;;12.52;2.65;;;;;;;;;;4348425;32;20165;-79
2021/03/09 09:47:54;;;;;;;13.85;3.45;;;;;;;;;;4351199;32;20055;-76
2021/03/09 09:50:22;;;;;;;11.40;2.15;;;;;;;;;;4352490;33;20059;-79
2021/03/09 09:53:01;;;;;;;8.68;2.12;;;;;;;;;;4352365;32;20151;-77
2021/03/09 09:55:30;;;;;;;11.32;3.40;;;;;;;;;;4349415;33;20486;-79
2021/03/09 09:58:00;;;;;;;8.07;3.42;;;;;;;;;;4337728;32;20493;-78
2021/03/09 10:00:31;;;;;;;9.20;2.62;;;;;;;;;;4338818;32;20094;-80
2021/03/09 10:03:09;;;;;;;11.48;2.37;;;;;;;;;;4351251;32;20052;-81
2021/03/09 10:05:38;;;;;;;10.02;2.28;;;;;;;;;;4351957;33;20059;-81
2021/03/09 10:08:07;;;;;;;10.57;3.62;;;;;;;;;;4349222;32;20055;-78
2021/03/09 10:10:36;;;;;;;11.82;2.83;;;;;;;;;;4351345;33;20111;-78
2021/03/09 10:13:20;;;;;;;13.40;3.85;;;;;;;;;;4345885;32;20082;-78
2021/03/09 10:15:51;;;;;;;15.40;2.75;;;;;;;;;;4347571;33;20111;-76
2021/03/09 10:18:25;;;;;;;16.95;4.12;;;;;;;;;;4350524;32;20066;-76
2021/03/09 10:21:00;;;;;;;13.30;3.10;;;;;;;;;;4351470;33;20150;-80
2021/03/09 10:23:28;;;;;;;9.70;3.30;;;;;;;;;;4350624;33;20135;-79
2021/03/09 10:26:00;;;;;;;10.35;4.25;;;;;;;;;;4337434;33;20105;-80
2021/03/09 10:28:29;;;;;;;12.77;4.10;;;;;;;;;;4352147;32;20079;-80
2021/03/09 10:30:57;;;;;;;10.68;2.30;;;;;;;;;;4354449;32;20114;-78
2021/03/09 10:33:25;;;;;;;7.97;2.70;;;;;;;;;;4353583;32;20036;-80
2021/03/09 10:36:04;;;;;;;13.00;2.15;;;;;;;;;;4336124;32;20047;-83
2021/03/09 10:38:33;;;;;;;12.30;2.92;;;;;;;;;;4354744;32;20352;-81
2021/03/09 10:41:02;;;;;;;11.48;2.28;;;;;;;;;;4353845;32;20079;-78
2021/03/09 10:43:38;;;;;;;10.23;3.72;;;;;;;;;;4353993;32;20067;-80
2021/03/09 10:46:07;;;;;;;10.13;2.42;;;;;;;;;;4338943;33;20060;-81
2021/03/09 10:48:35;;;;;;;7.82;2.12;;;;;;;;;;4352067;32;20500;-79
2021/03/09 10:51:03;;;;;;;13.68;4.25;;;;;;;;;;4341466;33;20115;-78
2021/03/09 10:53:34;;;;;;;10.68;3.47;;;;;;;;;;4355380;32;20314;-82
2021/03/09 10:56:02;;;;;;;7.90;3.25;;;;;;;;;;4354476;32;20040;-79
2021/03/09 10:58:31;;;;;;;6.47;2.78;;;;;;;;;;4340600;32;20121;-78
2021/03/09 11:00:59;;;;;;;8.13;2.53;;;;;;;;;;4340326;33;20081;-80
2021/03/09 11:03:27;;;;;;;7.60;2.87;;;;;;;;;;4338705;33;20078;-81
2021/03/09 11:05:56;;;;;;;7.07;2.70;;;;;;;;;;4338109;33;20509;-81
2021/03/09 11:08:29;;;;;;;6.37;1.87;;;;;;;;;;4320097;33;20437;-80
2021/03/09 11:10:57;;;;;;;6.35;2.10;;;;;;;;;;4346692;33;20089;-79
2021/03/09 11:13:25;;;;;;;8.40;2.67;;;;;;;;;;4354142;32;20440;-79
2021/03/09 11:15:56;;;;;;;6.65;2.28;;;;;;;;;;4340124;32;20254;-81
2021/03/09 11:18:24;;;;;;;9.35;2.85;;;;;;;;;;4357522;32;20062;-79
2021/03/09 11:20:56;;;;;;;6.25;2.60;;;;;;;;;;4351096;32;20056;-82
2021/03/09 11:23:23;;;;;;;10.20;2.90;;;;;;;;;;4343449;33;20422;-81
2021/03/09 11:25:51;;;;;;;6.28;2.12;;;;;;;;;;4351650;32;20525;-79
2021/03/09 11:28:22;;;;;;;13.48;2.30;;;;;;;;;;4348930;32;20157;-80
2021/03/09 11:30:49;;;;;;;8.48;2.45;;;;;;;;;;4346542;32;20146;-81
2021/03/09 11:33:17;;;;;;;6.32;1.70;;;;;;;;;;4353012;32;20047;-79
2021/03/09 11:35:45;;;;;;;6.82;2.03;;;;;;;;;;4348182;32;20089;-81
2021/03/09 11:38:13;;;;;;;12.65;3.03;;;;;;;;;;4345637;32;20862;-82
2021/03/09 11:40:41;;;;;;;7.07;2.10;;;;;;;;;;4347832;32;20133;-79
2021/03/09 11:43:09;;;;;;;5.35;1.80;;;;;;;;;;4352275;32;20086;-79
2021/03/09 11:45:39;;;;;;;7.18;2.15;;;;;;;;;;4354858;32;20059;-79
2021/03/09 11:48:07;;;;;;;6.75;2.00;;;;;;;;;;4347096;32;20185;-79
2021/03/09 11:50:37;;;;;;;4.93;1.85;;;;;;;;;;4347776;32;20701;-80
2021/03/09 11:53:05;;;;;;;6.53;2.22;;;;;;;;;;4355366;32;20052;-80
2021/03/09 11:55:44;;;;;;;10.93;2.28;;;;;;;;;;4353543;32;20514;-80
2021/03/09 11:58:12;;;;;;;5.05;1.70;;;;;;;;;;4347122;32;20119;-79
2021/03/09 12:00:40;;;;;;;4.15;1.45;;;;;;;;;;4349220;32;20122;-79
2021/03/09 12:03:08;;;;;;;4.40;1.83;;;;;;;;;;4362979;32;20387;-80
2021/03/09 12:05:36;;;;;;;6.85;2.20;;;;;;;;;;4359866;32;20073;-80
2021/03/09 12:08:04;;;;;;;5.32;1.87;;;;;;;;;;4349844;32;20116;-78
2021/03/09 12:10:33;;;;;;;6.10;2.15;;;;;;;;;;4350582;32;20060;-78
2021/03/09 12:13:01;;;;;;;6.87;1.98;;;;;;;;;;4361112;32;20055;-79
2021/03/09 12:15:28;;;;;;;7.57;1.77;;;;;;;;;;4359415;32;20047;-80
2021/03/09 12:17:59;;;;;;;6.25;1.58;;;;;;;;;;4352098;32;20107;-83
2021/03/09 12:20:28;;;;;;;8.40;2.30;;;;;;;;;;4352154;32;20466;-80
2021/03/09 12:22:56;;;;;;;4.70;1.92;;;;;;;;;;4348583;32;20099;-78
2021/03/09 12:25:24;;;;;;;4.45;1.33;;;;;;;;;;4342168;32;20123;-77
2021/03/09 12:27:52;;;;;;;6.12;1.52;;;;;;;;;;4342687;32;20156;-79
2021/03/09 12:30:20;;;;;;;11.30;2.60;;;;;;;;;;4340959;32;20773;-80
2021/03/09 12:32:48;;;;;;;5.72;1.87;;;;;;;;;;4339753;32;20071;-80
2021/03/09 12:35:16;;;;;;;11.52;1.80;;;;;;;;;;4344167;32;22524;-79
2021/03/09 12:37:44;;;;;;;6.70;1.73;;;;;;;;;;4346036;32;20087;-79
2021/03/09 12:40:13;;;;;;;16.92;1.83;;;;;;;;;;4339999;32;20133;-79
2021/03/09 12:42:41;;;;;;;5.97;1.70;;;;;;;;;;4342887;32;20146;-80
2021/03/09 12:45:09;;;;;;;4.85;1.42;;;;;;;;;;4344740;32;20580;-82
2021/03/09 12:47:38;;;;;;;10.48;1.75;;;;;;;;;;4343618;32;20085;-80
2021/03/09 12:50:07;;;;;;;6.43;1.75;;;;;;;;;;4332367;32;20127;-79
2021/03/09 12:52:34;;;;;;;5.50;1.27;;;;;;;;;;4344418;32;20096;-80
2021/03/09 12:55:04;;;;;;;6.75;1.70;;;;;;;;;;4357778;32;20111;-79
2021/03/09 12:57:32;;;;;;;5.82;1.60;;;;;;;;;;4344061;32;20111;-81
2021/03/09 13:00:00;;;;;;;4.85;1.73;;;;;;;;;;4344688;32;20060;-77
2021/03/09 13:02:28;;;;;;;12.40;2.20;;;;;;;;;;4348370;32;20055;-81
2021/03/09 13:04:56;;;;;;;10.10;1.90;;;;;;;;;;4341476;32;20107;-81
2021/03/09 13:07:24;;;;;;;9.82;2.53;;;;;;;;;;4341915;32;20131;-79
2021/03/09 13:09:53;;;;;;;6.57;1.73;;;;;;;;;;4338271;32;20188;-80
2021/03/09 13:12:21;;;;;;;4.82;1.85;;;;;;;;;;4361391;32;20388;-80
2021/03/09 13:14:49;;;;;;;7.57;2.00;;;;;;;;;;4346495;32;20827;-83
2021/03/09 13:17:17;;;;;;;8.15;1.95;;;;;;;;;;4339683;32;20520;-82
2021/03/09 13:19:45;;;;;;;8.77;2.25;;;;;;;;;;4342379;32;20427;-80
2021/03/09 13:22:13;;;;;;;12.88;2.47;;;;;;;;;;4349568;32;20055;-79
2021/03/09 13:24:44;;;;;;;8.27;1.70;;;;;;;;;;4339924;32;20063;-79
2021/03/09 13:27:11;;;;;;;9.18;1.95;;;;;;;;;;4338977;32;20431;-80
2021/03/09 13:29:39;;;;;;;6.25;2.00;;;;;;;;;;4345443;32;20063;-80
2021/03/09 13:32:08;;;;;;;13.10;2.40;;;;;;;;;;4351335;32;20418;-79
2021/03/09 13:34:37;;;;;;;10.63;2.30;;;;;;;;;;4344403;32;20074;-79
2021/03/09 13:37:04;;;;;;;5.40;1.77;;;;;;;;;;4344187;32;20127;-80
2021/03/09 13:39:33;;;;;;;7.05;1.90;;;;;;;;;;4338373;32;20106;-78
2021/03/09 13:42:00;;;;;;;4.95;1.30;;;;;;;;;;4348794;32;20571;-80
2021/03/09 13:44:28;;;;;;;8.15;2.00;;;;;;;;;;4349550;32;20579;-80
2021/03/09 13:46:57;;;;;;;7.65;1.90;;;;;;;;;;4348086;32;20126;-79
2021/03/09 13:49:25;;;;;;;5.80;1.40;;;;;;;;;;4346589;32;20453;-79
2021/03/09 13:51:56;;;;;;;6.10;1.62;;;;;;;;;;4342083;32;20083;-77
2021/03/09 13:54:32;;;;;;;13.18;2.30;;;;;;;;;;4346453;32;20063;-78
2021/03/09 13:57:14;;;;;;;11.82;2.70;;;;;;;;;;4338105;32;20102;-79
2021/03/09 13:59:42;;;;;;;3.53;1.45;;;;;;;;;;4334657;33;20072;-79
2021/03/09 14:02:15;;;;;;;7.15;1.40;;;;;;;;;;4326592;32;20107;-79
2021/03/09 14:04:43;;;;;;;6.05;1.92;;;;;;;;;;4343836;32;20353;-79
2021/03/09 14:07:13;;;;;;;10.85;2.67;;;;;;;;;;4327747;32;20098;-79
2021/03/09 14:09:41;;;;;;;10.50;2.12;;;;;;;;;;4344150;32;20111;-81
2021/03/09 14:12:11;;;;;;;9.23;2.33;;;;;;;;;;4345408;32;20535;-79
2021/03/09 14:14:40;;;;;;;8.27;1.73;;;;;;;;;;4340918;32;20117;-79
2021/03/09 14:17:09;;;;;;;5.47;1.80;;;;;;;;;;4339459;32;20121;-82
2021/03/09 14:19:38;;;;;;;9.05;2.03;;;;;;;;;;4344087;32;20067;-78
2021/03/09 14:22:06;;;;;;;10.52;2.20;;;;;;;;;;4349795;32;20105;-78
2021/03/09 14:24:34;;;;;;;11.75;2.28;;;;;;;;;;4346754;32;20420;-81
2021/03/09 14:27:02;;;;;;;8.27;1.87;;;;;;;;;;4344052;32;20055;-80
2021/03/09 14:29:30;;;;;;;13.80;2.75;;;;;;;;;;4330590;32;20745;-79
2021/03/09 14:31:58;;;;;;;12.77;3.20;;;;;;;;;;4340082;32;20067;-78
2021/03/09 14:34:27;;;;;;;8.20;2.00;;;;;;;;;;4348636;32;20055;-80
2021/03/09 14:37:01;;;;;;;7.22;2.08;;;;;;;;;;4345959;32;20123;-78
2021/03/09 14:39:29;;;;;;;6.15;2.05;;;;;;;;;;4349779;32;20051;-78
2021/03/09 14:41:58;;;;;;;13.70;2.50;;;;;;;;;;4352809;32;20053;-77
2021/03/09 14:44:26;;;;;;;14.13;2.65;;;;;;;;;;4341667;33;20418;-78
2021/03/09 14:46:57;;;;;;;5.65;1.73;;;;;;;;;;4337217;32;20110;-81
2021/03/09 14:49:25;;;;;;;9.32;1.92;;;;;;;;;;4351265;32;20087;-78
2021/03/09 14:51:54;;;;;;;7.32;2.15;;;;;;;;;;4346002;32;20075;-80
2021/03/09 14:54:22;;;;;;;16.25;2.72;;;;;;;;;;4340862;32;20108;-78
2021/03/09 14:56:50;;;;;;;12.15;2.65;;;;;;;;;;4342508;32;20056;-78
2021/03/09 14:59:18;;;;;;;14.18;2.65;;;;;;;;;;4354935;32;20048;-80
2021/03/09 15:01:46;;;;;;;13.77;2.78;;;;;;;;;;4356610;32;20111;-79
2021/03/09 15:04:16;;;;;;;8.35;2.17;;;;;;;;;;4340351;32;20169;-82
2021/03/09 15:06:45;;;;;;;11.73;2.22;;;;;;;;;;4340994;32;20075;-80
2021/03/09 15:09:13;;;;;;;11.73;2.75;;;;;;;;;;4344030;32;20515;-78
2021/03/09 15:11:41;;;;;;;10.38;2.97;;;;;;;;;;4346830;32;20217;-80
2021/03/09 15:14:09;;;;;;;11.98;2.83;;;;;;;;;;4340581;32;20461;-80
2021/03/09 15:16:37;;;;;;;8.93;2.00;;;;;;;;;;4348678;32;20071;-79